Time,TemperatureF,DewpointF,PressureIn,WindDirection,WindDirectionDegrees,WindSpeedMPH,WindSpeedGustMPH,Humidity,HourlyPrecipIn,Conditions,Clouds,dailyrainin,SoftwareType,DateUTC
2013-02-25 00:01:00,47.3,36.5,30.10,North,0,15.0,21.0,66,0.00,,,0.00,meteohub,2013-02-25 08:01:00,
2013-02-25 00:06:00,47.1,36.7,30.09,North,0,11.0,21.0,67,0.00,,,0.00,meteohub,2013-02-25 08:06:00,
2013-02-25 00:11:00,47.1,37.0,30.10,North,0,14.0,21.0,68,0.00,,,0.00,meteohub,2013-02-25 08:11:00,
2013-02-25 00:16:00,47.3,37.2,30.10,North,0,20.0,20.0,68,0.00,,,0.00,meteohub,2013-02-25 08:16:00,
2013-02-25 00:21:00,47.3,37.6,30.09,NW,315,18.0,21.0,69,0.00,,,0.00,meteohub,2013-02-25 08:21:00,
2013-02-25 00:26:00,47.5,37.8,30.09,North,0,22.0,22.0,69,0.00,,,0.00,meteohub,2013-02-25 08:26:00,
2013-02-25 00:31:00,47.5,38.1,30.09,North,0,13.0,26.0,70,0.00,,,0.00,meteohub,2013-02-25 08:31:00,
2013-02-25 00:36:00,47.5,38.1,30.09,North,0,21.0,26.0,70,0.00,,,0.00,meteohub,2013-02-25 08:36:00,
2013-02-25 00:42:00,47.5,38.5,30.09,North,0,16.0,22.0,71,0.00,,,0.00,meteohub,2013-02-25 08:42:00,
2013-02-25 00:47:00,47.3,39.0,30.09,North,0,20.0,22.0,73,0.00,,,0.00,meteohub,2013-02-25 08:47:00,
2013-02-25 00:52:00,47.1,39.2,30.08,North,0,21.0,22.0,74,0.00,,,0.00,meteohub,2013-02-25 08:52:00,
2013-02-25 00:57:00,46.9,39.4,30.08,North,0,19.0,28.0,75,0.00,,,0.00,meteohub,2013-02-25 08:57:00,
2013-02-25 01:02:00,46.6,39.0,30.07,North,0,22.0,28.0,75,0.00,,,0.00,meteohub,2013-02-25 09:02:00,
2013-02-25 01:07:00,46.6,39.0,30.07,North,0,21.0,28.0,75,0.00,,,0.00,meteohub,2013-02-25 09:07:00,
2013-02-25 01:12:00,46.6,39.4,30.07,North,0,18.0,25.0,76,0.00,,,0.00,meteohub,2013-02-25 09:12:00,
2013-02-25 01:17:00,46.8,39.2,30.08,North,0,24.0,26.0,75,0.00,,,0.00,meteohub,2013-02-25 09:17:00,
2013-02-25 01:22:00,46.6,39.0,30.07,North,0,29.0,29.0,75,0.00,,,0.00,meteohub,2013-02-25 09:22:00,
2013-02-25 01:27:00,46.6,39.4,30.07,North,0,18.0,29.0,76,0.00,,,0.00,meteohub,2013-02-25 09:27:00,
2013-02-25 01:32:00,46.6,39.4,30.07,North,0,17.0,29.0,76,0.00,,,0.00,meteohub,2013-02-25 09:32:00,
2013-02-25 01:37:00,46.6,39.4,30.07,North,0,20.0,29.0,76,0.00,,,0.00,meteohub,2013-02-25 09:37:00,
2013-02-25 01:42:00,46.2,39.7,30.07,North,0,17.0,23.0,78,0.00,,,0.00,meteohub,2013-02-25 09:42:00,
2013-02-25 01:47:00,46.4,39.6,30.07,North,0,20.0,23.0,77,0.00,,,0.00,meteohub,2013-02-25 09:47:00,
2013-02-25 01:52:00,46.2,39.4,30.08,North,0,21.0,25.0,77,0.00,,,0.00,meteohub,2013-02-25 09:52:00,
2013-02-25 01:57:00,45.9,39.7,30.07,North,0,20.0,25.0,79,0.00,,,0.00,meteohub,2013-02-25 09:57:00,
2013-02-25 02:02:00,45.5,39.4,30.07,North,0,23.0,25.0,79,0.01,,,0.01,meteohub,2013-02-25 10:02:00,
2013-02-25 02:07:00,45.1,39.4,30.08,North,0,22.0,27.0,80,0.01,,,0.01,meteohub,2013-02-25 10:07:00,
2013-02-25 02:12:00,45.0,39.6,30.08,North,0,24.0,29.0,81,0.02,,,0.02,meteohub,2013-02-25 10:12:00,
2013-02-25 02:17:00,44.4,39.2,30.08,North,0,30.0,30.0,82,0.02,,,0.02,meteohub,2013-02-25 10:17:00,
2013-02-25 02:22:00,44.2,39.4,30.09,North,0,29.0,34.0,83,0.02,,,0.02,meteohub,2013-02-25 10:22:00,
2013-02-25 02:27:00,43.9,39.4,30.09,North,0,34.0,34.0,84,0.02,,,0.02,meteohub,2013-02-25 10:27:00,
2013-02-25 02:32:00,44.1,39.9,30.10,North,0,29.0,43.0,85,0.05,,,0.05,meteohub,2013-02-25 10:32:00,
2013-02-25 02:37:00,43.9,40.3,30.10,North,0,32.0,43.0,87,0.05,,,0.05,meteohub,2013-02-25 10:37:00,
2013-02-25 02:42:00,44.1,40.5,30.10,North,0,35.0,43.0,87,0.05,,,0.05,meteohub,2013-02-25 10:42:00,
2013-02-25 02:47:00,44.1,40.8,30.10,North,0,28.0,36.0,88,0.05,,,0.05,meteohub,2013-02-25 10:47:00,
2013-02-25 02:52:00,43.9,41.2,30.11,North,0,27.0,36.0,90,0.05,,,0.05,meteohub,2013-02-25 10:52:00,
2013-02-25 02:57:00,43.7,41.5,30.12,North,0,27.0,35.0,92,0.05,,,0.05,meteohub,2013-02-25 10:57:00,
2013-02-25 03:02:00,43.5,41.7,30.12,North,0,21.0,34.0,93,0.04,,,0.05,meteohub,2013-02-25 11:02:00,
2013-02-25 03:07:00,43.3,41.7,30.12,NE,45,18.0,30.0,94,0.04,,,0.05,meteohub,2013-02-25 11:07:00,
2013-02-25 03:12:00,43.7,41.7,30.13,NE,45,21.0,30.0,93,0.02,,,0.05,meteohub,2013-02-25 11:12:00,
2013-02-25 03:17:00,43.7,41.5,30.13,NE,45,21.0,29.0,92,0.02,,,0.05,meteohub,2013-02-25 11:17:00,
2013-02-25 03:22:00,43.5,41.9,30.13,NE,45,17.0,27.0,94,0.02,,,0.05,meteohub,2013-02-25 11:22:00,
2013-02-25 03:27:00,43.5,41.7,30.13,NE,45,16.0,27.0,93,0.01,,,0.05,meteohub,2013-02-25 11:27:00,
2013-02-25 03:32:00,43.5,41.7,30.14,North,0,16.0,22.0,93,0.00,,,0.05,meteohub,2013-02-25 11:32:00,
2013-02-25 03:37:00,43.5,41.7,30.14,North,0,12.0,20.0,93,0.01,,,0.06,meteohub,2013-02-25 11:37:00,
2013-02-25 03:42:00,43.5,41.9,30.14,North,0,11.0,18.0,94,0.01,,,0.06,meteohub,2013-02-25 11:42:00,
2013-02-25 03:47:00,43.5,41.7,30.15,NE,45,9.0,17.0,93,0.01,,,0.06,meteohub,2013-02-25 11:47:00,
2013-02-25 03:52:00,43.3,41.7,30.15,North,0,10.0,17.0,94,0.01,,,0.06,meteohub,2013-02-25 11:52:00,
2013-02-25 03:57:00,43.3,41.5,30.15,NE,45,14.0,14.0,93,0.01,,,0.06,meteohub,2013-02-25 11:57:00,
2013-02-25 04:02:00,43.5,41.4,30.15,NE,45,13.0,16.0,92,0.02,,,0.07,meteohub,2013-02-25 12:02:00,
2013-02-25 04:07:00,43.5,41.0,30.16,NE,45,11.0,16.0,91,0.02,,,0.07,meteohub,2013-02-25 12:07:00,
2013-02-25 04:12:00,43.7,41.0,30.16,North,0,14.0,16.0,90,0.02,,,0.07,meteohub,2013-02-25 12:12:00,
2013-02-25 04:17:00,43.7,40.5,30.16,North,0,18.0,18.0,88,0.02,,,0.07,meteohub,2013-02-25 12:17:00,
2013-02-25 04:22:00,43.7,40.1,30.17,North,0,10.0,18.0,87,0.02,,,0.07,meteohub,2013-02-25 12:22:00,
2013-02-25 04:27:00,43.7,40.6,30.18,North,0,8.0,18.0,89,0.02,,,0.07,meteohub,2013-02-25 12:27:00,
2013-02-25 04:32:00,43.7,40.6,30.18,North,0,9.0,18.0,89,0.01,,,0.07,meteohub,2013-02-25 12:32:00,
2013-02-25 04:37:00,43.7,40.5,30.18,NNE,23,13.0,14.0,88,0.01,,,0.07,meteohub,2013-02-25 12:37:00,
2013-02-25 04:42:00,43.7,39.7,30.18,NE,45,14.0,15.0,86,0.01,,,0.07,meteohub,2013-02-25 12:42:00,
2013-02-25 04:47:00,43.5,39.6,30.19,NE,45,9.0,15.0,86,0.01,,,0.07,meteohub,2013-02-25 12:47:00,
2013-02-25 04:52:00,43.3,39.7,30.18,NNE,23,8.0,15.0,87,0.01,,,0.07,meteohub,2013-02-25 12:52:00,
2013-02-25 04:57:00,43.2,39.6,30.19,NE,45,8.0,15.0,87,0.01,,,0.07,meteohub,2013-02-25 12:57:00,
2013-02-25 05:02:00,43.0,39.7,30.19,NE,45,8.0,12.0,88,0.00,,,0.07,meteohub,2013-02-25 13:02:00,
2013-02-25 05:07:00,42.8,39.7,30.19,NE,45,8.0,11.0,89,0.00,,,0.07,meteohub,2013-02-25 13:07:00,
2013-02-25 05:12:00,42.6,39.6,30.19,NE,45,8.0,10.0,89,0.00,,,0.07,meteohub,2013-02-25 13:12:00,
2013-02-25 05:17:00,42.4,39.7,30.19,East,90,8.0,8.0,90,0.00,,,0.07,meteohub,2013-02-25 13:17:00,
2013-02-25 05:22:00,42.3,39.6,30.19,NE,45,4.0,8.0,90,0.00,,,0.07,meteohub,2013-02-25 13:22:00,
2013-02-25 05:27:00,42.3,39.6,30.20,NE,45,8.0,8.0,90,0.00,,,0.07,meteohub,2013-02-25 13:27:00,
2013-02-25 05:32:00,42.3,39.6,30.20,NE,45,9.0,9.0,90,0.00,,,0.07,meteohub,2013-02-25 13:32:00,
2013-02-25 05:37:00,42.3,39.7,30.20,NE,45,8.0,9.0,91,0.00,,,0.07,meteohub,2013-02-25 13:37:00,
2013-02-25 05:42:00,42.1,39.6,30.21,NE,45,9.0,9.0,91,0.00,,,0.07,meteohub,2013-02-25 13:42:00,
2013-02-25 05:47:00,42.1,39.9,30.20,North,0,7.0,9.0,92,0.00,,,0.07,meteohub,2013-02-25 13:47:00,
2013-02-25 05:52:00,41.9,40.3,30.21,North,0,7.0,9.0,94,0.00,,,0.07,meteohub,2013-02-25 13:52:00,
2013-02-25 05:57:00,41.7,40.5,30.20,NE,45,8.0,9.0,95,0.01,,,0.08,meteohub,2013-02-25 13:57:00,
2013-02-25 06:02:00,42.1,40.5,30.21,North,0,11.0,11.0,94,0.01,,,0.08,meteohub,2013-02-25 14:02:00,
2013-02-25 06:07:00,41.9,40.6,30.21,NE,45,5.0,11.0,95,0.01,,,0.08,meteohub,2013-02-25 14:07:00,
2013-02-25 06:12:00,41.9,40.6,30.22,North,0,8.0,11.0,95,0.01,,,0.08,meteohub,2013-02-25 14:12:00,
2013-02-25 06:17:00,42.1,39.6,30.21,NNE,23,11.0,11.0,91,0.01,,,0.08,meteohub,2013-02-25 14:17:00,
2013-02-25 06:22:00,42.3,39.2,30.22,North,0,10.0,16.0,89,0.02,,,0.09,meteohub,2013-02-25 14:22:00,
2013-02-25 06:27:00,42.3,39.6,30.22,North,0,11.0,17.0,90,0.02,,,0.09,meteohub,2013-02-25 14:27:00,
2013-02-25 06:32:00,42.1,39.6,30.22,NE,45,10.0,17.0,91,0.02,,,0.09,meteohub,2013-02-25 14:32:00,
2013-02-25 06:37:00,42.1,39.4,30.22,NE,45,9.0,17.0,90,0.02,,,0.09,meteohub,2013-02-25 14:37:00,
2013-02-25 06:42:00,42.1,39.0,30.22,North,0,12.0,12.0,89,0.02,,,0.09,meteohub,2013-02-25 14:42:00,
2013-02-25 06:47:00,42.3,38.1,30.22,North,0,12.0,16.0,85,0.02,,,0.09,meteohub,2013-02-25 14:47:00,
2013-02-25 06:52:00,42.1,38.1,30.22,NE,45,11.0,17.0,86,0.02,,,0.09,meteohub,2013-02-25 14:52:00,
2013-02-25 06:57:00,41.7,38.5,30.22,North,0,9.0,17.0,88,0.01,,,0.09,meteohub,2013-02-25 14:57:00,
2013-02-25 07:02:00,41.7,38.7,30.23,North,0,9.0,17.0,89,0.01,,,0.09,meteohub,2013-02-25 15:02:00,
2013-02-25 07:07:00,41.9,39.4,30.23,North,0,8.0,14.0,91,0.01,,,0.09,meteohub,2013-02-25 15:07:00,
2013-02-25 07:12:00,41.9,40.3,30.23,North,0,10.0,11.0,94,0.01,,,0.09,meteohub,2013-02-25 15:12:00,
2013-02-25 07:17:00,41.9,40.6,30.23,NNE,23,12.0,12.0,95,0.00,,,0.09,meteohub,2013-02-25 15:17:00,
2013-02-25 07:22:00,41.9,40.1,30.23,North,0,18.0,18.0,93,0.00,,,0.09,meteohub,2013-02-25 15:22:00,
2013-02-25 07:27:00,42.1,39.9,30.23,North,0,15.0,18.0,92,0.00,,,0.09,meteohub,2013-02-25 15:27:00,
2013-02-25 07:32:00,42.1,39.6,30.23,North,0,12.0,18.0,91,0.00,,,0.09,meteohub,2013-02-25 15:32:00,
2013-02-25 07:37:00,42.3,39.7,30.24,North,0,11.0,18.0,91,0.00,,,0.09,meteohub,2013-02-25 15:37:00,
2013-02-25 07:42:00,42.1,39.6,30.23,North,0,12.0,17.0,91,0.00,,,0.09,meteohub,2013-02-25 15:42:00,
2013-02-25 07:47:00,42.1,39.6,30.24,North,0,13.0,17.0,91,0.00,,,0.09,meteohub,2013-02-25 15:47:00,
2013-02-25 07:52:00,41.9,39.4,30.24,North,0,13.0,18.0,91,0.00,,,0.09,meteohub,2013-02-25 15:52:00,
2013-02-25 07:57:00,42.3,38.7,30.25,North,0,13.0,19.0,87,0.00,,,0.09,meteohub,2013-02-25 15:57:00,
2013-02-25 08:02:00,42.1,39.4,30.25,North,0,16.0,21.0,90,0.00,,,0.09,meteohub,2013-02-25 16:02:00,
2013-02-25 08:07:00,42.1,39.4,30.25,North,0,13.0,21.0,90,0.00,,,0.09,meteohub,2013-02-25 16:07:00,
2013-02-25 08:12:00,42.1,39.4,30.25,North,0,16.0,21.0,90,0.00,,,0.09,meteohub,2013-02-25 16:12:00,
2013-02-25 08:17:00,42.3,39.6,30.25,North,0,12.0,17.0,90,0.00,,,0.09,meteohub,2013-02-25 16:17:00,
2013-02-25 08:22:00,42.1,39.0,30.26,North,0,11.0,17.0,89,0.00,,,0.09,meteohub,2013-02-25 16:22:00,
2013-02-25 08:27:00,41.9,38.8,30.25,NNW,338,15.0,17.0,89,0.00,,,0.09,meteohub,2013-02-25 16:27:00,
2013-02-25 08:32:00,41.9,39.2,30.26,NE,45,15.0,17.0,90,0.00,,,0.09,meteohub,2013-02-25 16:32:00,
2013-02-25 08:37:00,42.1,39.4,30.26,North,0,10.0,17.0,90,0.00,,,0.09,meteohub,2013-02-25 16:37:00,
2013-02-25 08:42:00,42.1,39.4,30.26,North,0,11.0,15.0,90,0.00,,,0.09,meteohub,2013-02-25 16:42:00,
2013-02-25 08:47:00,42.1,39.6,30.26,NNE,23,11.0,15.0,91,0.00,,,0.09,meteohub,2013-02-25 16:47:00,
2013-02-25 08:52:00,42.3,39.6,30.27,North,0,16.0,16.0,90,0.00,,,0.09,meteohub,2013-02-25 16:52:00,
2013-02-25 08:57:00,42.4,39.7,30.27,North,0,18.0,18.0,90,0.00,,,0.09,meteohub,2013-02-25 16:57:00,
2013-02-25 09:02:00,43.5,40.3,30.27,North,0,16.0,18.0,88,0.01,,,0.11,meteohub,2013-02-25 17:02:00,
2013-02-25 09:07:00,43.9,39.9,30.27,North,0,15.0,18.0,86,0.01,,,0.11,meteohub,2013-02-25 17:07:00,
2013-02-25 09:12:00,43.3,40.1,30.27,North,0,16.0,18.0,88,0.01,,,0.11,meteohub,2013-02-25 17:12:00,
2013-02-25 09:17:00,43.3,39.2,30.27,North,0,19.0,20.0,85,0.01,,,0.11,meteohub,2013-02-25 17:17:00,
2013-02-25 09:22:00,43.3,40.1,30.27,NE,45,15.0,20.0,88,0.01,,,0.11,meteohub,2013-02-25 17:22:00,
2013-02-25 09:27:00,43.2,39.9,30.27,North,0,15.0,20.0,88,0.01,,,0.11,meteohub,2013-02-25 17:27:00,
2013-02-25 09:32:00,42.8,39.6,30.28,NE,45,17.0,19.0,88,0.01,,,0.11,meteohub,2013-02-25 17:32:00,
2013-02-25 09:37:00,42.8,39.7,30.28,North,0,15.0,18.0,89,0.02,,,0.12,meteohub,2013-02-25 17:37:00,
2013-02-25 09:42:00,43.0,40.3,30.28,North,0,16.0,18.0,90,0.02,,,0.12,meteohub,2013-02-25 17:42:00,
2013-02-25 09:47:00,42.8,40.3,30.28,North,0,13.0,18.0,91,0.02,,,0.12,meteohub,2013-02-25 17:47:00,
2013-02-25 09:52:00,43.0,40.5,30.28,NE,45,12.0,17.0,91,0.02,,,0.12,meteohub,2013-02-25 17:52:00,
2013-02-25 09:57:00,43.5,39.4,30.28,North,0,13.0,17.0,85,0.02,,,0.12,meteohub,2013-02-25 17:57:00,
2013-02-25 10:02:00,43.9,39.7,30.28,North,0,16.0,17.0,85,0.01,,,0.12,meteohub,2013-02-25 18:02:00,
2013-02-25 10:07:00,44.1,40.5,30.28,North,0,13.0,17.0,87,0.01,,,0.12,meteohub,2013-02-25 18:07:00,
2013-02-25 10:13:00,43.5,39.9,30.28,North,0,12.0,17.0,87,0.01,,,0.12,meteohub,2013-02-25 18:13:00,
2013-02-25 10:18:00,43.3,40.1,30.29,North,0,17.0,17.0,88,0.01,,,0.12,meteohub,2013-02-25 18:18:00,
2013-02-25 10:23:00,43.9,40.6,30.29,NE,45,12.0,17.0,88,0.01,,,0.12,meteohub,2013-02-25 18:23:00,
2013-02-25 10:28:00,45.3,41.0,30.29,NNE,23,16.0,17.0,85,0.01,,,0.12,meteohub,2013-02-25 18:28:00,
2013-02-25 10:33:00,44.2,40.3,30.29,North,0,15.0,17.0,86,0.00,,,0.12,meteohub,2013-02-25 18:33:00,
2013-02-25 10:38:00,43.7,40.1,30.29,NE,45,11.0,17.0,87,0.00,,,0.12,meteohub,2013-02-25 18:38:00,
2013-02-25 10:43:00,43.5,40.5,30.29,North,0,13.0,17.0,89,0.00,,,0.12,meteohub,2013-02-25 18:43:00,
2013-02-25 10:48:00,43.7,40.5,30.30,North,0,8.0,15.0,88,0.00,,,0.12,meteohub,2013-02-25 18:48:00,
2013-02-25 10:53:00,44.1,41.0,30.30,NE,45,10.0,15.0,89,0.00,,,0.12,meteohub,2013-02-25 18:53:00,
2013-02-25 10:58:00,43.3,40.8,30.30,NE,45,11.0,17.0,91,0.00,,,0.12,meteohub,2013-02-25 18:58:00,
2013-02-25 11:03:00,42.8,39.6,30.29,NE,45,16.0,17.0,88,0.00,,,0.12,meteohub,2013-02-25 19:03:00,
2013-02-25 11:08:00,42.6,40.1,30.30,NE,45,11.0,17.0,91,0.01,,,0.13,meteohub,2013-02-25 19:08:00,
2013-02-25 11:13:00,42.3,39.7,30.30,ENE,68,13.0,17.0,91,0.02,,,0.14,meteohub,2013-02-25 19:13:00,
2013-02-25 11:18:00,41.9,39.7,30.30,NE,45,12.0,17.0,92,0.02,,,0.14,meteohub,2013-02-25 19:18:00,
2013-02-25 11:23:00,41.0,38.3,30.30,NE,45,11.0,17.0,90,0.05,,,0.17,meteohub,2013-02-25 19:23:00,
2013-02-25 11:28:00,41.4,39.2,30.31,North,0,8.0,17.0,92,0.05,,,0.17,meteohub,2013-02-25 19:28:00,
2013-02-25 11:33:00,44.2,41.5,30.30,NE,45,9.0,16.0,90,0.05,,,0.17,meteohub,2013-02-25 19:33:00,
2013-02-25 11:38:00,45.3,40.8,30.30,North,0,13.0,13.0,84,0.05,,,0.17,meteohub,2013-02-25 19:38:00,
2013-02-25 11:43:00,46.2,40.6,30.30,NE,45,15.0,15.0,81,0.05,,,0.17,meteohub,2013-02-25 19:43:00,
2013-02-25 11:48:00,46.8,41.5,30.30,North,0,12.0,15.0,82,0.05,,,0.17,meteohub,2013-02-25 19:48:00,
2013-02-25 11:53:00,46.8,40.6,30.30,NE,45,17.0,17.0,79,0.05,,,0.17,meteohub,2013-02-25 19:53:00,
2013-02-25 11:58:00,46.9,40.8,30.30,NE,45,15.0,15.0,79,0.05,,,0.17,meteohub,2013-02-25 19:58:00,
2013-02-25 12:03:00,46.9,39.7,30.30,NE,45,20.0,20.0,76,0.04,,,0.17,meteohub,2013-02-25 20:03:00,
2013-02-25 12:08:00,47.1,39.6,30.30,North,0,17.0,20.0,75,0.04,,,0.17,meteohub,2013-02-25 20:08:00,
2013-02-25 12:13:00,47.7,40.1,30.29,NE,45,13.0,20.0,75,0.02,,,0.17,meteohub,2013-02-25 20:13:00,
2013-02-25 12:18:00,46.9,39.7,30.29,NE,45,16.0,20.0,76,0.01,,,0.17,meteohub,2013-02-25 20:18:00,
2013-02-25 12:23:00,47.1,39.6,30.29,NE,45,17.0,19.0,75,0.00,,,0.17,meteohub,2013-02-25 20:23:00,
2013-02-25 12:28:00,47.1,39.6,30.30,NE,45,15.0,17.0,75,0.00,,,0.17,meteohub,2013-02-25 20:28:00,
2013-02-25 12:33:00,46.4,38.5,30.29,North,0,19.0,19.0,74,0.00,,,0.17,meteohub,2013-02-25 20:33:00,
2013-02-25 12:38:00,47.1,39.2,30.29,NE,45,17.0,19.0,74,0.00,,,0.17,meteohub,2013-02-25 20:38:00,
2013-02-25 12:43:00,47.1,39.2,30.30,North,0,17.0,19.0,74,0.00,,,0.17,meteohub,2013-02-25 20:43:00,
2013-02-25 12:48:00,48.0,39.4,30.29,NE,45,11.0,19.0,72,0.00,,,0.17,meteohub,2013-02-25 20:48:00,
2013-02-25 12:53:00,49.1,41.5,30.29,NE,45,14.0,19.0,75,0.00,,,0.17,meteohub,2013-02-25 20:53:00,
2013-02-25 12:58:00,48.6,39.2,30.29,NE,45,17.0,19.0,70,0.00,,,0.17,meteohub,2013-02-25 20:58:00,
2013-02-25 13:03:00,48.2,38.8,30.29,East,90,18.0,18.0,70,0.00,,,0.17,meteohub,2013-02-25 21:03:00,
2013-02-25 13:08:00,46.8,39.6,30.29,East,90,17.0,21.0,76,0.00,,,0.17,meteohub,2013-02-25 21:08:00,
2013-02-25 13:13:00,45.3,39.9,30.29,East,90,17.0,21.0,81,0.00,,,0.17,meteohub,2013-02-25 21:13:00,
2013-02-25 13:18:00,45.0,39.6,30.29,East,90,21.0,21.0,81,0.00,,,0.17,meteohub,2013-02-25 21:18:00,
2013-02-25 13:23:00,44.8,39.6,30.30,East,90,22.0,22.0,82,0.00,,,0.17,meteohub,2013-02-25 21:23:00,
2013-02-25 13:28:00,44.6,38.5,30.30,NE,45,21.0,23.0,79,0.00,,,0.17,meteohub,2013-02-25 21:28:00,
2013-02-25 13:33:00,44.8,37.9,30.30,NE,45,21.0,23.0,77,0.00,,,0.17,meteohub,2013-02-25 21:33:00,
2013-02-25 13:38:00,44.8,39.0,30.30,NE,45,20.0,23.0,80,0.00,,,0.17,meteohub,2013-02-25 21:38:00,
2013-02-25 13:43:00,44.8,38.3,30.30,NE,45,18.0,23.0,78,0.00,,,0.17,meteohub,2013-02-25 21:43:00,
2013-02-25 13:48:00,45.0,38.1,30.31,NE,45,15.0,23.0,77,0.00,,,0.17,meteohub,2013-02-25 21:48:00,
2013-02-25 13:53:00,45.0,37.9,30.31,NE,45,17.0,23.0,76,0.00,,,0.17,meteohub,2013-02-25 21:53:00,
2013-02-25 13:59:00,45.1,37.9,30.30,NE,45,14.0,22.0,76,0.00,,,0.17,meteohub,2013-02-25 21:59:00,
2013-02-25 14:04:00,45.7,37.6,30.30,NE,45,16.0,20.0,73,0.00,,,0.17,meteohub,2013-02-25 22:04:00,
2013-02-25 14:09:00,46.2,38.1,30.30,NE,45,13.0,20.0,73,0.00,,,0.17,meteohub,2013-02-25 22:09:00,
2013-02-25 14:14:00,47.3,37.9,30.30,NE,45,22.0,22.0,70,0.00,,,0.17,meteohub,2013-02-25 22:14:00,
2013-02-25 14:19:00,48.2,38.8,30.30,NE,45,15.0,18.0,70,0.00,,,0.17,meteohub,2013-02-25 22:19:00,
2013-02-25 14:24:00,48.7,37.6,30.29,NE,45,23.0,26.0,65,0.00,,,0.17,meteohub,2013-02-25 22:24:00,
2013-02-25 14:29:00,48.7,37.0,30.30,NE,45,23.0,26.0,64,0.00,,,0.17,meteohub,2013-02-25 22:29:00,
2013-02-25 14:34:00,49.5,38.1,30.29,NE,45,19.0,26.0,65,0.00,,,0.17,meteohub,2013-02-25 22:34:00,
2013-02-25 14:39:00,49.3,36.3,30.29,East,90,18.0,23.0,61,0.00,,,0.17,meteohub,2013-02-25 22:39:00,
2013-02-25 14:44:00,49.5,36.1,30.29,ENE,68,22.0,23.0,60,0.00,,,0.17,meteohub,2013-02-25 22:44:00,
2013-02-25 14:49:00,49.5,35.8,30.29,NE,45,21.0,22.0,59,0.00,,,0.17,meteohub,2013-02-25 22:49:00,
2013-02-25 14:54:00,49.6,36.0,30.29,ENE,68,17.0,22.0,59,0.00,,,0.17,meteohub,2013-02-25 22:54:00,
2013-02-25 14:59:00,50.0,35.8,30.29,NE,45,16.0,22.0,58,0.00,,,0.17,meteohub,2013-02-25 22:59:00,
2013-02-25 15:04:00,50.0,36.7,30.29,NE,45,17.0,21.0,60,0.00,,,0.17,meteohub,2013-02-25 23:04:00,
2013-02-25 15:09:00,50.0,36.7,30.29,NE,45,17.0,21.0,60,0.00,,,0.17,meteohub,2013-02-25 23:09:00,
2013-02-25 15:14:00,50.2,37.6,30.30,NE,45,17.0,21.0,62,0.00,,,0.17,meteohub,2013-02-25 23:14:00,
2013-02-25 15:19:00,48.9,36.9,30.30,NE,45,13.0,21.0,63,0.00,,,0.17,meteohub,2013-02-25 23:19:00,
2013-02-25 15:24:00,48.2,36.1,30.30,East,90,20.0,23.0,63,0.00,,,0.17,meteohub,2013-02-25 23:24:00,
2013-02-25 15:29:00,46.9,38.3,30.31,East,90,17.0,23.0,72,0.00,,,0.17,meteohub,2013-02-25 23:29:00,
2013-02-25 15:34:00,45.3,37.9,30.31,East,90,21.0,23.0,75,0.00,,,0.17,meteohub,2013-02-25 23:34:00,
2013-02-25 15:39:00,44.8,37.9,30.31,East,90,24.0,27.0,77,0.00,,,0.17,meteohub,2013-02-25 23:39:00,
2013-02-25 15:44:00,44.8,38.3,30.31,East,90,23.0,27.0,78,0.00,,,0.17,meteohub,2013-02-25 23:44:00,
2013-02-25 15:49:00,44.2,37.8,30.31,East,90,27.0,27.0,78,0.00,,,0.17,meteohub,2013-02-25 23:49:00,
2013-02-25 15:54:00,43.9,38.1,30.32,East,90,29.0,29.0,80,0.00,,,0.17,meteohub,2013-02-25 23:54:00,
2013-02-25 15:59:00,43.7,38.3,30.32,East,90,23.0,29.0,81,0.00,,,0.17,meteohub,2013-02-25 23:59:00,
2013-02-25 16:04:00,43.7,38.3,30.32,NE,45,15.0,29.0,81,0.00,,,0.17,meteohub,2013-02-26 00:04:00,
2013-02-25 16:09:00,44.1,37.9,30.32,East,90,15.0,29.0,79,0.00,,,0.17,meteohub,2013-02-26 00:09:00,
2013-02-25 16:14:00,44.6,37.6,30.32,NE,45,17.0,24.0,76,0.00,,,0.17,meteohub,2013-02-26 00:14:00,
2013-02-25 16:19:00,44.8,37.4,30.32,NE,45,18.0,20.0,75,0.00,,,0.17,meteohub,2013-02-26 00:19:00,
2013-02-25 16:24:00,44.6,37.2,30.32,NE,45,18.0,20.0,75,0.00,,,0.17,meteohub,2013-02-26 00:24:00,
2013-02-25 16:29:00,44.6,37.2,30.32,NE,45,17.0,21.0,75,0.00,,,0.17,meteohub,2013-02-26 00:29:00,
2013-02-25 16:34:00,44.4,37.0,30.32,NE,45,18.0,21.0,75,0.00,,,0.17,meteohub,2013-02-26 00:34:00,
2013-02-25 16:39:00,44.2,37.6,30.32,East,90,17.0,23.0,77,0.00,,,0.17,meteohub,2013-02-26 00:39:00,
2013-02-25 16:44:00,44.1,37.4,30.33,NE,45,15.0,23.0,77,0.00,,,0.17,meteohub,2013-02-26 00:44:00,
2013-02-25 16:49:00,44.1,37.4,30.33,NE,45,17.0,23.0,77,0.00,,,0.17,meteohub,2013-02-26 00:49:00,
2013-02-25 16:54:00,44.1,37.6,30.33,East,90,15.0,20.0,78,0.00,,,0.17,meteohub,2013-02-26 00:54:00,
2013-02-25 16:59:00,43.9,37.2,30.33,East,90,15.0,20.0,77,0.00,,,0.17,meteohub,2013-02-26 00:59:00,
2013-02-25 17:04:00,43.9,37.8,30.33,NE,45,11.0,19.0,79,0.00,,,0.17,meteohub,2013-02-26 01:04:00,
2013-02-25 17:09:00,43.9,37.4,30.33,NE,45,15.0,17.0,78,0.00,,,0.17,meteohub,2013-02-26 01:09:00,
2013-02-25 17:14:00,43.7,37.6,30.34,NE,45,15.0,17.0,79,0.00,,,0.17,meteohub,2013-02-26 01:14:00,
2013-02-25 17:19:00,43.3,37.9,30.33,NE,45,17.0,17.0,81,0.00,,,0.17,meteohub,2013-02-26 01:19:00,
2013-02-25 17:24:00,42.8,37.9,30.33,NE,45,13.0,16.0,83,0.00,,,0.17,meteohub,2013-02-26 01:24:00,
2013-02-25 17:29:00,42.6,38.7,30.33,East,90,8.0,18.0,86,0.00,,,0.17,meteohub,2013-02-26 01:29:00,
2013-02-25 17:34:00,42.4,38.8,30.33,NE,45,11.0,18.0,87,0.00,,,0.17,meteohub,2013-02-26 01:34:00,
2013-02-25 17:39:00,42.6,38.7,30.34,NE,45,7.0,18.0,86,0.00,,,0.17,meteohub,2013-02-26 01:39:00,
2013-02-25 17:44:00,42.4,38.8,30.33,NE,45,4.0,11.0,87,0.00,,,0.17,meteohub,2013-02-26 01:44:00,
2013-02-25 17:49:00,42.3,38.7,30.33,NE,45,5.0,11.0,87,0.00,,,0.17,meteohub,2013-02-26 01:49:00,
2013-02-25 17:54:00,42.1,38.5,30.34,East,90,6.0,8.0,87,0.00,,,0.17,meteohub,2013-02-26 01:54:00,
2013-02-25 17:59:00,41.9,38.8,30.34,NE,45,6.0,8.0,89,0.00,,,0.17,meteohub,2013-02-26 01:59:00,
2013-02-25 18:04:00,41.7,38.7,30.34,ENE,68,5.0,8.0,89,0.00,,,0.17,meteohub,2013-02-26 02:04:00,
2013-02-25 18:09:00,41.5,38.5,30.34,NE,45,6.0,8.0,89,0.00,,,0.17,meteohub,2013-02-26 02:09:00,
2013-02-25 18:14:00,41.5,38.5,30.34,NE,45,4.0,8.0,89,0.00,,,0.17,meteohub,2013-02-26 02:14:00,
2013-02-25 18:19:00,41.7,38.5,30.35,NE,45,3.0,8.0,88,0.00,,,0.17,meteohub,2013-02-26 02:19:00,
2013-02-25 18:24:00,41.7,38.5,30.35,NE,45,4.0,8.0,88,0.00,,,0.17,meteohub,2013-02-26 02:24:00,
2013-02-25 18:29:00,41.9,37.9,30.35,NE,45,9.0,9.0,86,0.00,,,0.17,meteohub,2013-02-26 02:29:00,
2013-02-25 18:34:00,42.1,37.9,30.35,NE,45,9.0,9.0,85,0.00,,,0.17,meteohub,2013-02-26 02:34:00,
2013-02-25 18:39:00,42.1,38.1,30.35,NE,45,8.0,9.0,86,0.00,,,0.17,meteohub,2013-02-26 02:39:00,
2013-02-25 18:44:00,41.9,38.3,30.35,NE,45,5.0,9.0,87,0.00,,,0.17,meteohub,2013-02-26 02:44:00,
2013-02-25 18:49:00,41.5,37.9,30.35,NE,45,9.0,9.0,87,0.00,,,0.17,meteohub,2013-02-26 02:49:00,
2013-02-25 18:54:00,41.4,37.8,30.35,NE,45,10.0,10.0,87,0.00,,,0.17,meteohub,2013-02-26 02:54:00,
2013-02-25 18:59:00,41.2,37.4,30.35,NE,45,11.0,11.0,86,0.00,,,0.17,meteohub,2013-02-26 02:59:00,
2013-02-25 19:04:00,41.0,37.2,30.36,NE,45,8.0,11.0,86,0.00,,,0.17,meteohub,2013-02-26 03:04:00,
2013-02-25 19:09:00,41.0,36.9,30.36,NE,45,9.0,11.0,85,0.00,,,0.17,meteohub,2013-02-26 03:09:00,
2013-02-25 19:14:00,40.8,36.7,30.36,NE,45,9.0,11.0,85,0.00,,,0.17,meteohub,2013-02-26 03:14:00,
2013-02-25 19:19:00,40.8,36.3,30.36,NE,45,11.0,11.0,84,0.00,,,0.17,meteohub,2013-02-26 03:19:00,
2013-02-25 19:24:00,40.8,36.3,30.36,NE,45,8.0,11.0,84,0.00,,,0.17,meteohub,2013-02-26 03:24:00,
2013-02-25 19:29:00,40.8,36.7,30.36,NE,45,4.0,11.0,85,0.00,,,0.17,meteohub,2013-02-26 03:29:00,
2013-02-25 19:34:00,40.8,36.7,30.37,NE,45,4.0,11.0,85,0.00,,,0.17,meteohub,2013-02-26 03:34:00,
2013-02-25 19:39:00,40.8,37.0,30.36,NE,45,5.0,9.0,86,0.00,,,0.17,meteohub,2013-02-26 03:39:00,
2013-02-25 19:44:00,40.8,36.7,30.36,NE,45,5.0,7.0,85,0.00,,,0.17,meteohub,2013-02-26 03:44:00,
2013-02-25 19:49:00,41.2,37.0,30.37,NE,45,5.0,6.0,85,0.00,,,0.17,meteohub,2013-02-26 03:49:00,
2013-02-25 19:54:00,41.4,37.2,30.36,NE,45,7.0,8.0,85,0.00,,,0.17,meteohub,2013-02-26 03:54:00,
2013-02-25 19:59:00,41.4,36.9,30.36,North,0,7.0,8.0,84,0.00,,,0.17,meteohub,2013-02-26 03:59:00,
2013-02-25 20:04:00,41.2,37.4,30.36,North,0,7.0,8.0,86,0.00,,,0.17,meteohub,2013-02-26 04:04:00,
2013-02-25 20:09:00,41.2,37.6,30.36,North,0,7.0,8.0,87,0.00,,,0.17,meteohub,2013-02-26 04:09:00,
2013-02-25 20:14:00,41.0,37.8,30.36,North,0,5.0,9.0,88,0.00,,,0.17,meteohub,2013-02-26 04:14:00,
2013-02-25 20:19:00,40.8,37.8,30.36,North,0,8.0,9.0,89,0.00,,,0.17,meteohub,2013-02-26 04:19:00,
2013-02-25 20:24:00,40.8,37.6,30.36,North,0,6.0,9.0,88,0.00,,,0.17,meteohub,2013-02-26 04:24:00,
2013-02-25 20:29:00,40.5,37.4,30.37,North,0,6.0,8.0,89,0.00,,,0.17,meteohub,2013-02-26 04:29:00,
2013-02-25 20:35:00,40.3,37.0,30.37,North,0,5.0,8.0,88,0.00,,,0.17,meteohub,2013-02-26 04:35:00,
2013-02-25 20:40:00,40.1,36.9,30.37,North,0,3.0,8.0,88,0.00,,,0.17,meteohub,2013-02-26 04:40:00,
2013-02-25 20:45:00,40.3,37.0,30.37,North,0,6.0,8.0,88,0.00,,,0.17,meteohub,2013-02-26 04:45:00,
2013-02-25 20:50:00,40.3,36.7,30.37,NW,315,3.0,7.0,87,0.00,,,0.17,meteohub,2013-02-26 04:50:00,
2013-02-25 20:55:00,40.5,36.7,30.37,North,0,11.0,11.0,86,0.00,,,0.17,meteohub,2013-02-26 04:55:00,
2013-02-25 21:00:00,40.8,36.7,30.38,NE,45,3.0,6.0,85,0.00,,,0.17,meteohub,2013-02-26 05:00:00,
2013-02-25 21:05:00,40.6,36.5,30.38,NE,45,4.0,12.0,85,0.00,,,0.17,meteohub,2013-02-26 05:05:00,
2013-02-25 21:10:00,40.3,36.5,30.38,NE,45,6.0,8.0,86,0.00,,,0.17,meteohub,2013-02-26 05:10:00,
2013-02-25 21:15:00,40.1,36.3,30.38,North,0,3.0,6.0,86,0.00,,,0.17,meteohub,2013-02-26 05:15:00,
2013-02-25 21:20:00,39.7,36.1,30.38,North,0,4.0,6.0,87,0.00,,,0.17,meteohub,2013-02-26 05:20:00,
2013-02-25 21:25:00,39.4,36.1,30.39,North,0,4.0,6.0,88,0.00,,,0.17,meteohub,2013-02-26 05:25:00,
2013-02-25 21:30:00,39.4,36.7,30.38,NE,45,6.0,7.0,90,0.00,,,0.17,meteohub,2013-02-26 05:30:00,
2013-02-25 21:35:00,39.4,36.5,30.39,North,0,3.0,7.0,89,0.00,,,0.17,meteohub,2013-02-26 05:35:00,
2013-02-25 21:40:00,39.6,36.9,30.39,North,0,8.0,8.0,90,0.00,,,0.17,meteohub,2013-02-26 05:40:00,
2013-02-25 21:45:00,39.9,36.9,30.38,North,0,6.0,10.0,89,0.00,,,0.17,meteohub,2013-02-26 05:45:00,
2013-02-25 21:50:00,39.9,36.9,30.39,North,0,7.0,10.0,89,0.00,,,0.17,meteohub,2013-02-26 05:50:00,
2013-02-25 21:56:00,40.1,37.4,30.38,North,0,6.0,10.0,90,0.00,,,0.17,meteohub,2013-02-26 05:56:00,
2013-02-25 22:01:00,40.1,37.4,30.38,North,0,8.0,8.0,90,0.00,,,0.17,meteohub,2013-02-26 06:01:00,
2013-02-25 22:06:00,40.3,37.2,30.38,North,0,8.0,10.0,89,0.00,,,0.17,meteohub,2013-02-26 06:06:00,
2013-02-25 22:11:00,40.3,37.2,30.39,NW,315,7.0,10.0,89,0.00,,,0.17,meteohub,2013-02-26 06:11:00,
2013-02-25 22:16:00,39.9,37.2,30.39,NW,315,5.0,10.0,90,0.00,,,0.17,meteohub,2013-02-26 06:16:00,
2013-02-25 22:21:00,39.7,37.0,30.39,NW,315,7.0,9.0,90,0.00,,,0.17,meteohub,2013-02-26 06:21:00,
2013-02-25 22:26:00,39.6,36.9,30.38,NW,315,6.0,8.0,90,0.00,,,0.17,meteohub,2013-02-26 06:26:00,
2013-02-25 22:31:00,39.2,36.9,30.39,NW,315,5.0,8.0,91,0.00,,,0.17,meteohub,2013-02-26 06:31:00,
2013-02-25 22:36:00,39.2,36.5,30.38,NW,315,4.0,8.0,90,0.00,,,0.17,meteohub,2013-02-26 06:36:00,
2013-02-25 22:41:00,39.0,36.3,30.39,NW,315,4.0,6.0,90,0.00,,,0.17,meteohub,2013-02-26 06:41:00,
2013-02-25 22:46:00,39.0,36.7,30.39,NW,315,5.0,5.0,91,0.00,,,0.17,meteohub,2013-02-26 06:46:00,
2013-02-25 22:51:00,39.9,36.9,30.39,NW,315,6.0,9.0,89,0.00,,,0.17,meteohub,2013-02-26 06:51:00,
2013-02-25 22:56:00,39.9,36.7,30.38,West,270,5.0,11.0,88,0.00,,,0.17,meteohub,2013-02-26 06:56:00,
2013-02-25 23:01:00,39.0,36.3,30.39,NW,315,5.0,11.0,90,0.00,,,0.17,meteohub,2013-02-26 07:01:00,
2013-02-25 23:06:00,38.5,36.7,30.39,West,270,5.0,10.0,93,0.00,,,0.17,meteohub,2013-02-26 07:06:00,
2013-02-25 23:11:00,38.3,36.7,30.39,West,270,5.0,7.0,94,0.00,,,0.17,meteohub,2013-02-26 07:11:00,
2013-02-25 23:16:00,38.3,37.0,30.39,West,270,4.0,6.0,95,0.00,,,0.17,meteohub,2013-02-26 07:16:00,
2013-02-25 23:21:00,38.3,37.2,30.39,North,0,3.0,6.0,96,0.00,,,0.17,meteohub,2013-02-26 07:21:00,
2013-02-25 23:26:00,38.3,37.2,30.39,West,270,4.0,6.0,96,0.00,,,0.17,meteohub,2013-02-26 07:26:00,
2013-02-25 23:31:00,38.1,37.0,30.39,West,270,4.0,6.0,96,0.00,,,0.17,meteohub,2013-02-26 07:31:00,
2013-02-25 23:36:00,38.1,37.0,30.39,NE,45,2.0,6.0,96,0.00,,,0.17,meteohub,2013-02-26 07:36:00,
2013-02-25 23:41:00,38.1,37.0,30.39,NW,315,2.0,6.0,96,0.00,,,0.17,meteohub,2013-02-26 07:41:00,
2013-02-25 23:46:00,37.9,37.2,30.39,NW,315,2.0,4.0,97,0.00,,,0.17,meteohub,2013-02-26 07:46:00,
2013-02-25 23:51:00,37.9,37.2,30.39,North,0,4.0,4.0,97,0.00,,,0.17,meteohub,2013-02-26 07:51:00,
2013-02-25 23:56:00,38.1,37.0,30.39,North,0,6.0,6.0,96,0.00,,,0.17,meteohub,2013-02-26 07:56:00,